sensor_id;sensor_type;location;lat;lon;timestamp;temperature;humidity
27633;DHT22;15046;50.930;13.334;2023-11-21T00:01:19;8.20;99.90
27633;DHT22;15046;50.930;13.334;2023-11-21T00:03:45;8.10;99.90
27633;DHT22;15046;50.930;13.334;2023-11-21T00:06:11;8.10;99.90
27633;DHT22;15046;50.930;13.334;2023-11-21T00:08:37;8.10;99.90
27633;DHT22;15046;50.930;13.334;2023-11-21T00:11:03;8.10;99.90
27633;DHT22;15046;50.930;13.334;2023-11-21T00:13:32;8.10;99.90
27633;DHT22;15046;50.930;13.334;2023-11-21T00:15:58;8.10;99.90
27633;DHT22;15046;50.930;13.334;2023-11-21T00:18:24;8.10;99.90
27633;DHT22;15046;50.930;13.334;2023-11-21T00:20:50;8.10;99.90
27633;DHT22;15046;50.930;13.334;2023-11-21T00:23:16;8.10;99.90
27633;DHT22;15046;50.930;13.334;2023-11-21T00:25:43;8.00;99.90
27633;DHT22;15046;50.930;13.334;2023-11-21T00:28:09;8.00;99.90
27633;DHT22;15046;50.930;13.334;2023-11-21T00:30:35;8.00;99.90
27633;DHT22;15046;50.930;13.334;2023-11-21T00:33:01;8.00;99.90
27633;DHT22;15046;50.930;13.334;2023-11-21T00:35:27;8.00;99.90
27633;DHT22;15046;50.930;13.334;2023-11-21T00:37:52;8.00;99.90
27633;DHT22;15046;50.930;13.334;2023-11-21T00:40:18;8.00;99.90
27633;DHT22;15046;50.930;13.334;2023-11-21T00:42:48;8.00;99.90
27633;DHT22;15046;50.930;13.334;2023-11-21T00:45:13;7.90;99.90
27633;DHT22;15046;50.930;13.334;2023-11-21T00:47:39;7.90;99.90
27633;DHT22;15046;50.930;13.334;2023-11-21T00:50:05;7.90;99.90
27633;DHT22;15046;50.930;13.334;2023-11-21T00:52:32;7.80;99.90
27633;DHT22;15046;50.930;13.334;2023-11-21T00:54:58;7.80;99.90
27633;DHT22;15046;50.930;13.334;2023-11-21T00:57:28;7.70;99.90
27633;DHT22;15046;50.930;13.334;2023-11-21T00:59:54;7.60;99.90
27633;DHT22;15046;50.930;13.334;2023-11-21T01:02:20;7.60;99.90
27633;DHT22;15046;50.930;13.334;2023-11-21T01:04:46;7.50;99.90
27633;DHT22;15046;50.930;13.334;2023-11-21T01:07:13;7.50;99.90
27633;DHT22;15046;50.930;13.334;2023-11-21T01:09:39;7.50;99.90
27633;DHT22;15046;50.930;13.334;2023-11-21T01:12:05;7.50;99.90
27633;DHT22;15046;50.930;13.334;2023-11-21T01:14:31;7.50;99.90
27633;DHT22;15046;50.930;13.334;2023-11-21T01:16:56;7.50;99.90
27633;DHT22;15046;50.930;13.334;2023-11-21T01:19:22;7.50;99.90
27633;DHT22;15046;50.930;13.334;2023-11-21T01:21:48;7.60;99.90
27633;DHT22;15046;50.930;13.334;2023-11-21T01:24:14;7.60;99.90
27633;DHT22;15046;50.930;13.334;2023-11-21T01:26:39;7.60;99.90
27633;DHT22;15046;50.930;13.334;2023-11-21T01:29:06;7.50;99.90
27633;DHT22;15046;50.930;13.334;2023-11-21T01:31:31;7.50;99.90
27633;DHT22;15046;50.930;13.334;2023-11-21T01:33:58;7.50;99.90
27633;DHT22;15046;50.930;13.334;2023-11-21T01:36:30;7.50;99.90
27633;DHT22;15046;50.930;13.334;2023-11-21T01:38:57;7.60;99.90
27633;DHT22;15046;50.930;13.334;2023-11-21T01:41:26;7.60;99.90
27633;DHT22;15046;50.930;13.334;2023-11-21T01:43:52;7.50;99.90
27633;DHT22;15046;50.930;13.334;2023-11-21T01:46:20;7.50;99.90
27633;DHT22;15046;50.930;13.334;2023-11-21T01:48:46;7.60;99.90
27633;DHT22;15046;50.930;13.334;2023-11-21T01:51:13;7.50;99.90
27633;DHT22;15046;50.930;13.334;2023-11-21T01:53:40;7.50;99.90
27633;DHT22;15046;50.930;13.334;2023-11-21T01:56:06;7.50;99.90
27633;DHT22;15046;50.930;13.334;2023-11-21T01:58:33;7.40;99.90
27633;DHT22;15046;50.930;13.334;2023-11-21T02:00:59;7.40;99.90
27633;DHT22;15046;50.930;13.334;2023-11-21T02:03:25;7.40;99.90
27633;DHT22;15046;50.930;13.334;2023-11-21T02:05:53;7.30;99.90
27633;DHT22;15046;50.930;13.334;2023-11-21T02:08:19;7.20;99.90
27633;DHT22;15046;50.930;13.334;2023-11-21T02:10:45;7.10;99.90
27633;DHT22;15046;50.930;13.334;2023-11-21T02:13:13;7.10;99.90
27633;DHT22;15046;50.930;13.334;2023-11-21T02:15:39;7.10;99.90
27633;DHT22;15046;50.930;13.334;2023-11-21T02:18:05;7.10;99.90
27633;DHT22;15046;50.930;13.334;2023-11-21T02:20:32;7.10;99.90
27633;DHT22;15046;50.930;13.334;2023-11-21T02:23:00;7.10;99.90
27633;DHT22;15046;50.930;13.334;2023-11-21T02:25:30;7.10;99.90
27633;DHT22;15046;50.930;13.334;2023-11-21T02:27:58;7.10;99.90
27633;DHT22;15046;50.930;13.334;2023-11-21T02:30:25;7.20;99.90
27633;DHT22;15046;50.930;13.334;2023-11-21T02:32:51;7.20;99.90
27633;DHT22;15046;50.930;13.334;2023-11-21T02:35:21;7.20;99.90
27633;DHT22;15046;50.930;13.334;2023-11-21T02:37:47;7.30;99.90
27633;DHT22;15046;50.930;13.334;2023-11-21T02:40:13;7.30;99.90
27633;DHT22;15046;50.930;13.334;2023-11-21T02:42:43;7.30;99.90
27633;DHT22;15046;50.930;13.334;2023-11-21T02:45:09;7.30;99.90
27633;DHT22;15046;50.930;13.334;2023-11-21T02:47:38;7.30;99.90
27633;DHT22;15046;50.930;13.334;2023-11-21T02:50:05;7.20;99.90
27633;DHT22;15046;50.930;13.334;2023-11-21T02:52:33;7.20;99.90
27633;DHT22;15046;50.930;13.334;2023-11-21T02:54:59;7.20;99.90
27633;DHT22;15046;50.930;13.334;2023-11-21T02:57:25;7.20;99.90
27633;DHT22;15046;50.930;13.334;2023-11-21T02:59:50;7.20;99.90
27633;DHT22;15046;50.930;13.334;2023-11-21T03:02:17;7.20;99.90
27633;DHT22;15046;50.930;13.334;2023-11-21T03:04:42;7.20;99.90
27633;DHT22;15046;50.930;13.334;2023-11-21T03:07:09;7.20;99.90
27633;DHT22;15046;50.930;13.334;2023-11-21T03:09:35;7.20;99.90
27633;DHT22;15046;50.930;13.334;2023-11-21T03:12:01;7.20;99.90
27633;DHT22;15046;50.930;13.334;2023-11-21T03:14:26;7.20;99.90
27633;DHT22;15046;50.930;13.334;2023-11-21T03:16:52;7.20;99.90
27633;DHT22;15046;50.930;13.334;2023-11-21T03:19:18;7.20;99.90
27633;DHT22;15046;50.930;13.334;2023-11-21T03:21:44;7.20;99.90
27633;DHT22;15046;50.930;13.334;2023-11-21T03:24:09;7.20;99.90
27633;DHT22;15046;50.930;13.334;2023-11-21T03:26:36;7.20;99.90
27633;DHT22;15046;50.930;13.334;2023-11-21T03:29:02;7.30;99.90
27633;DHT22;15046;50.930;13.334;2023-11-21T03:31:28;7.30;99.90
27633;DHT22;15046;50.930;13.334;2023-11-21T03:33:54;7.30;99.90
27633;DHT22;15046;50.930;13.334;2023-11-21T03:36:20;7.30;99.90
27633;DHT22;15046;50.930;13.334;2023-11-21T03:38:47;7.40;99.90
27633;DHT22;15046;50.930;13.334;2023-11-21T03:41:13;7.40;99.90
27633;DHT22;15046;50.930;13.334;2023-11-21T03:43:41;7.30;99.90
27633;DHT22;15046;50.930;13.334;2023-11-21T03:46:07;7.40;99.90
27633;DHT22;15046;50.930;13.334;2023-11-21T03:48:33;7.40;99.90
27633;DHT22;15046;50.930;13.334;2023-11-21T03:50:59;7.40;99.90
27633;DHT22;15046;50.930;13.334;2023-11-21T03:53:24;7.40;99.90
27633;DHT22;15046;50.930;13.334;2023-11-21T03:55:50;7.40;99.90
27633;DHT22;15046;50.930;13.334;2023-11-21T03:58:16;7.40;99.90
27633;DHT22;15046;50.930;13.334;2023-11-21T04:00:42;7.40;99.90
27633;DHT22;15046;50.930;13.334;2023-11-21T04:03:07;7.40;99.90
27633;DHT22;15046;50.930;13.334;2023-11-21T04:05:33;7.40;99.90
27633;DHT22;15046;50.930;13.334;2023-11-21T04:07:59;7.40;99.90
27633;DHT22;15046;50.930;13.334;2023-11-21T04:10:25;7.40;99.90
27633;DHT22;15046;50.930;13.334;2023-11-21T04:12:51;7.40;99.90
27633;DHT22;15046;50.930;13.334;2023-11-21T04:15:16;7.40;99.90
27633;DHT22;15046;50.930;13.334;2023-11-21T04:17:42;7.40;99.90
27633;DHT22;15046;50.930;13.334;2023-11-21T04:20:09;7.50;99.90
27633;DHT22;15046;50.930;13.334;2023-11-21T04:22:39;7.50;99.90
27633;DHT22;15046;50.930;13.334;2023-11-21T04:25:14;7.50;99.90
27633;DHT22;15046;50.930;13.334;2023-11-21T04:27:40;7.50;99.90
27633;DHT22;15046;50.930;13.334;2023-11-21T04:30:07;7.50;99.90
27633;DHT22;15046;50.930;13.334;2023-11-21T04:32:33;7.40;99.90
27633;DHT22;15046;50.930;13.334;2023-11-21T04:34:59;7.40;99.90
27633;DHT22;15046;50.930;13.334;2023-11-21T04:37:25;7.40;99.90
27633;DHT22;15046;50.930;13.334;2023-11-21T04:39:50;7.40;99.90
27633;DHT22;15046;50.930;13.334;2023-11-21T04:42:17;7.40;99.90
27633;DHT22;15046;50.930;13.334;2023-11-21T04:44:43;7.40;99.90
27633;DHT22;15046;50.930;13.334;2023-11-21T04:47:09;7.40;99.90
27633;DHT22;15046;50.930;13.334;2023-11-21T04:49:35;7.40;99.90
27633;DHT22;15046;50.930;13.334;2023-11-21T04:52:01;7.40;99.90
27633;DHT22;15046;50.930;13.334;2023-11-21T04:54:29;7.40;99.90
27633;DHT22;15046;50.930;13.334;2023-11-21T04:56:56;7.40;99.90
27633;DHT22;15046;50.930;13.334;2023-11-21T04:59:22;7.40;99.90
27633;DHT22;15046;50.930;13.334;2023-11-21T05:01:50;7.30;99.90
27633;DHT22;15046;50.930;13.334;2023-11-21T05:04:16;7.40;99.90
27633;DHT22;15046;50.930;13.334;2023-11-21T05:06:42;7.30;99.90
27633;DHT22;15046;50.930;13.334;2023-11-21T05:09:08;7.30;99.90
27633;DHT22;15046;50.930;13.334;2023-11-21T05:11:37;7.30;99.90
27633;DHT22;15046;50.930;13.334;2023-11-21T05:14:03;7.30;99.90
27633;DHT22;15046;50.930;13.334;2023-11-21T05:16:30;7.30;99.90
27633;DHT22;15046;50.930;13.334;2023-11-21T05:18:57;7.30;99.90
27633;DHT22;15046;50.930;13.334;2023-11-21T05:21:29;7.30;99.90
27633;DHT22;15046;50.930;13.334;2023-11-21T05:23:57;7.30;99.90
27633;DHT22;15046;50.930;13.334;2023-11-21T05:26:23;7.20;99.90
27633;DHT22;15046;50.930;13.334;2023-11-21T05:28:49;7.20;99.90
27633;DHT22;15046;50.930;13.334;2023-11-21T05:31:15;7.30;99.90
27633;DHT22;15046;50.930;13.334;2023-11-21T05:33:42;7.30;99.90
27633;DHT22;15046;50.930;13.334;2023-11-21T05:36:08;7.30;99.90
27633;DHT22;15046;50.930;13.334;2023-11-21T05:38:35;7.30;99.90
27633;DHT22;15046;50.930;13.334;2023-11-21T05:41:02;7.30;99.90
27633;DHT22;15046;50.930;13.334;2023-11-21T05:43:29;7.40;99.90
27633;DHT22;15046;50.930;13.334;2023-11-21T05:45:56;7.40;99.90
27633;DHT22;15046;50.930;13.334;2023-11-21T05:48:22;7.40;99.90
27633;DHT22;15046;50.930;13.334;2023-11-21T05:50:48;7.40;99.90
27633;DHT22;15046;50.930;13.334;2023-11-21T05:53:15;7.30;99.90
27633;DHT22;15046;50.930;13.334;2023-11-21T05:55:41;7.40;99.90
27633;DHT22;15046;50.930;13.334;2023-11-21T05:58:08;7.30;99.90
27633;DHT22;15046;50.930;13.334;2023-11-21T06:00:33;7.20;99.90
27633;DHT22;15046;50.930;13.334;2023-11-21T06:03:00;7.10;99.90
27633;DHT22;15046;50.930;13.334;2023-11-21T06:05:26;7.00;99.90
27633;DHT22;15046;50.930;13.334;2023-11-21T06:07:56;6.90;99.90
27633;DHT22;15046;50.930;13.334;2023-11-21T06:10:24;6.80;99.90
27633;DHT22;15046;50.930;13.334;2023-11-21T06:12:51;6.70;99.90
27633;DHT22;15046;50.930;13.334;2023-11-21T06:15:17;6.70;99.90
27633;DHT22;15046;50.930;13.334;2023-11-21T06:17:46;6.60;99.90
27633;DHT22;15046;50.930;13.334;2023-11-21T06:20:15;6.60;99.90
27633;DHT22;15046;50.930;13.334;2023-11-21T06:22:47;6.50;99.90
27633;DHT22;15046;50.930;13.334;2023-11-21T06:25:14;6.50;99.90
27633;DHT22;15046;50.930;13.334;2023-11-21T06:27:47;6.50;99.90
27633;DHT22;15046;50.930;13.334;2023-11-21T06:30:13;6.60;99.90
27633;DHT22;15046;50.930;13.334;2023-11-21T06:32:41;6.60;99.90
27633;DHT22;15046;50.930;13.334;2023-11-21T06:35:07;6.60;99.90
27633;DHT22;15046;50.930;13.334;2023-11-21T06:37:36;6.60;99.90
27633;DHT22;15046;50.930;13.334;2023-11-21T06:40:02;6.60;99.90
27633;DHT22;15046;50.930;13.334;2023-11-21T06:42:30;6.70;99.90
27633;DHT22;15046;50.930;13.334;2023-11-21T06:44:56;6.70;99.90
27633;DHT22;15046;50.930;13.334;2023-11-21T06:47:23;6.60;99.90
27633;DHT22;15046;50.930;13.334;2023-11-21T06:49:53;6.60;99.90
27633;DHT22;15046;50.930;13.334;2023-11-21T06:52:19;6.70;99.90
27633;DHT22;15046;50.930;13.334;2023-11-21T06:54:46;6.80;99.90
27633;DHT22;15046;50.930;13.334;2023-11-21T06:57:13;6.80;99.90
27633;DHT22;15046;50.930;13.334;2023-11-21T06:59:39;6.90;99.90
27633;DHT22;15046;50.930;13.334;2023-11-21T07:02:04;6.90;99.90
27633;DHT22;15046;50.930;13.334;2023-11-21T07:04:33;7.00;99.90
27633;DHT22;15046;50.930;13.334;2023-11-21T07:06:59;7.00;99.90
27633;DHT22;15046;50.930;13.334;2023-11-21T07:09:25;7.10;99.90
27633;DHT22;15046;50.930;13.334;2023-11-21T07:11:52;7.10;99.90
27633;DHT22;15046;50.930;13.334;2023-11-21T07:14:18;7.00;99.90
27633;DHT22;15046;50.930;13.334;2023-11-21T07:16:45;7.10;99.90
27633;DHT22;15046;50.930;13.334;2023-11-21T07:19:11;7.10;99.90
27633;DHT22;15046;50.930;13.334;2023-11-21T07:21:38;7.10;99.90
27633;DHT22;15046;50.930;13.334;2023-11-21T07:24:06;7.20;99.90
27633;DHT22;15046;50.930;13.334;2023-11-21T07:26:33;7.20;99.90
27633;DHT22;15046;50.930;13.334;2023-11-21T07:29:00;7.20;99.90
27633;DHT22;15046;50.930;13.334;2023-11-21T07:31:26;7.20;99.90
27633;DHT22;15046;50.930;13.334;2023-11-21T07:33:52;7.20;99.90
27633;DHT22;15046;50.930;13.334;2023-11-21T07:36:19;7.20;99.90
27633;DHT22;15046;50.930;13.334;2023-11-21T07:38:46;7.20;99.90
27633;DHT22;15046;50.930;13.334;2023-11-21T07:41:12;7.20;99.90
27633;DHT22;15046;50.930;13.334;2023-11-21T07:43:42;7.20;99.90
27633;DHT22;15046;50.930;13.334;2023-11-21T07:46:07;7.30;99.90
27633;DHT22;15046;50.930;13.334;2023-11-21T07:48:34;7.30;99.90
27633;DHT22;15046;50.930;13.334;2023-11-21T07:51:01;7.30;99.90
27633;DHT22;15046;50.930;13.334;2023-11-21T07:53:29;7.30;99.90
27633;DHT22;15046;50.930;13.334;2023-11-21T07:55:56;7.30;99.90
27633;DHT22;15046;50.930;13.334;2023-11-21T07:58:22;7.30;99.90
27633;DHT22;15046;50.930;13.334;2023-11-21T08:00:50;7.30;99.90
27633;DHT22;15046;50.930;13.334;2023-11-21T08:03:16;7.30;99.90
27633;DHT22;15046;50.930;13.334;2023-11-21T08:05:42;7.20;99.90
27633;DHT22;15046;50.930;13.334;2023-11-21T08:08:08;7.20;99.90
27633;DHT22;15046;50.930;13.334;2023-11-21T08:10:34;7.20;99.90
27633;DHT22;15046;50.930;13.334;2023-11-21T08:13:02;7.20;99.90
27633;DHT22;15046;50.930;13.334;2023-11-21T08:15:28;7.20;99.90
27633;DHT22;15046;50.930;13.334;2023-11-21T08:17:53;7.20;99.90
27633;DHT22;15046;50.930;13.334;2023-11-21T08:20:19;7.20;99.90
27633;DHT22;15046;50.930;13.334;2023-11-21T08:22:45;7.20;99.90
27633;DHT22;15046;50.930;13.334;2023-11-21T08:25:13;7.20;99.90
27633;DHT22;15046;50.930;13.334;2023-11-21T08:27:39;7.20;99.90
27633;DHT22;15046;50.930;13.334;2023-11-21T08:30:05;7.20;99.90
27633;DHT22;15046;50.930;13.334;2023-11-21T08:32:31;7.20;99.90
27633;DHT22;15046;50.930;13.334;2023-11-21T08:34:59;7.20;99.90
27633;DHT22;15046;50.930;13.334;2023-11-21T08:37:25;7.20;99.90
27633;DHT22;15046;50.930;13.334;2023-11-21T08:39:52;7.20;99.90
27633;DHT22;15046;50.930;13.334;2023-11-21T08:42:19;7.20;99.90
27633;DHT22;15046;50.930;13.334;2023-11-21T08:44:45;7.20;99.90
27633;DHT22;15046;50.930;13.334;2023-11-21T08:47:11;7.30;99.90
27633;DHT22;15046;50.930;13.334;2023-11-21T08:49:37;7.30;99.90
27633;DHT22;15046;50.930;13.334;2023-11-21T08:52:04;7.30;99.90
27633;DHT22;15046;50.930;13.334;2023-11-21T08:54:31;7.30;99.90
27633;DHT22;15046;50.930;13.334;2023-11-21T08:56:57;7.30;99.90
27633;DHT22;15046;50.930;13.334;2023-11-21T08:59:24;7.30;99.90
27633;DHT22;15046;50.930;13.334;2023-11-21T09:01:50;7.30;99.90
27633;DHT22;15046;50.930;13.334;2023-11-21T09:04:16;7.20;99.90
27633;DHT22;15046;50.930;13.334;2023-11-21T09:06:42;7.30;99.90
27633;DHT22;15046;50.930;13.334;2023-11-21T09:09:08;7.20;99.90
27633;DHT22;15046;50.930;13.334;2023-11-21T09:11:36;7.20;99.90
27633;DHT22;15046;50.930;13.334;2023-11-21T09:14:02;7.30;99.90
27633;DHT22;15046;50.930;13.334;2023-11-21T09:16:31;7.20;99.90
27633;DHT22;15046;50.930;13.334;2023-11-21T09:18:58;7.20;99.90
27633;DHT22;15046;50.930;13.334;2023-11-21T09:21:24;7.20;99.90
27633;DHT22;15046;50.930;13.334;2023-11-21T09:23:51;7.20;99.90
27633;DHT22;15046;50.930;13.334;2023-11-21T09:26:17;7.30;99.90
27633;DHT22;15046;50.930;13.334;2023-11-21T09:28:46;7.30;99.90
27633;DHT22;15046;50.930;13.334;2023-11-21T09:31:13;7.30;99.90
27633;DHT22;15046;50.930;13.334;2023-11-21T09:33:44;7.30;99.90
27633;DHT22;15046;50.930;13.334;2023-11-21T09:36:13;7.30;99.90
27633;DHT22;15046;50.930;13.334;2023-11-21T09:38:40;7.30;99.90
27633;DHT22;15046;50.930;13.334;2023-11-21T09:41:15;7.30;99.90
27633;DHT22;15046;50.930;13.334;2023-11-21T09:43:46;7.30;99.90
27633;DHT22;15046;50.930;13.334;2023-11-21T09:46:13;7.30;99.90
27633;DHT22;15046;50.930;13.334;2023-11-21T09:48:47;7.30;99.90
27633;DHT22;15046;50.930;13.334;2023-11-21T09:51:17;7.30;99.90
27633;DHT22;15046;50.930;13.334;2023-11-21T09:53:48;7.30;99.90
27633;DHT22;15046;50.930;13.334;2023-11-21T09:56:15;7.30;99.90
27633;DHT22;15046;50.930;13.334;2023-11-21T09:58:45;7.30;99.90
27633;DHT22;15046;50.930;13.334;2023-11-21T10:01:11;7.30;99.90
27633;DHT22;15046;50.930;13.334;2023-11-21T10:03:39;7.30;99.90
27633;DHT22;15046;50.930;13.334;2023-11-21T10:06:08;7.30;99.90
27633;DHT22;15046;50.930;13.334;2023-11-21T10:08:35;7.20;99.90
27633;DHT22;15046;50.930;13.334;2023-11-21T10:11:02;7.30;99.90
27633;DHT22;15046;50.930;13.334;2023-11-21T10:13:32;7.30;99.90
27633;DHT22;15046;50.930;13.334;2023-11-21T10:15:59;7.20;99.90
27633;DHT22;15046;50.930;13.334;2023-11-21T10:18:26;7.20;99.90
27633;DHT22;15046;50.930;13.334;2023-11-21T10:20:53;7.20;99.90
27633;DHT22;15046;50.930;13.334;2023-11-21T10:23:20;7.20;99.90
27633;DHT22;15046;50.930;13.334;2023-11-21T10:25:47;7.10;99.90
27633;DHT22;15046;50.930;13.334;2023-11-21T10:28:15;7.10;99.90
27633;DHT22;15046;50.930;13.334;2023-11-21T10:30:41;7.00;99.90
27633;DHT22;15046;50.930;13.334;2023-11-21T10:33:07;7.00;99.90
27633;DHT22;15046;50.930;13.334;2023-11-21T10:35:47;6.90;99.90
27633;DHT22;15046;50.930;13.334;2023-11-21T10:38:16;6.90;99.90
27633;DHT22;15046;50.930;13.334;2023-11-21T10:40:43;6.90;99.90
27633;DHT22;15046;50.930;13.334;2023-11-21T10:43:10;6.90;99.90
27633;DHT22;15046;50.930;13.334;2023-11-21T10:45:38;6.90;99.90
27633;DHT22;15046;50.930;13.334;2023-11-21T10:48:08;6.90;99.90
27633;DHT22;15046;50.930;13.334;2023-11-21T10:50:38;6.80;99.90
27633;DHT22;15046;50.930;13.334;2023-11-21T10:53:05;6.80;99.90
27633;DHT22;15046;50.930;13.334;2023-11-21T10:55:32;6.70;99.90
27633;DHT22;15046;50.930;13.334;2023-11-21T10:58:01;6.70;99.90
27633;DHT22;15046;50.930;13.334;2023-11-21T11:00:28;6.70;99.90
27633;DHT22;15046;50.930;13.334;2023-11-21T11:02:55;6.70;99.90
27633;DHT22;15046;50.930;13.334;2023-11-21T11:05:22;6.60;99.90
27633;DHT22;15046;50.930;13.334;2023-11-21T11:08:09;6.50;99.90
27633;DHT22;15046;50.930;13.334;2023-11-21T11:10:37;6.50;99.90
27633;DHT22;15046;50.930;13.334;2023-11-21T11:13:03;6.50;99.90
27633;DHT22;15046;50.930;13.334;2023-11-21T11:15:29;6.60;99.90
27633;DHT22;15046;50.930;13.334;2023-11-21T11:17:56;6.50;99.90
27633;DHT22;15046;50.930;13.334;2023-11-21T11:20:30;6.40;99.90
27633;DHT22;15046;50.930;13.334;2023-11-21T11:26:37;6.40;99.90
27633;DHT22;15046;50.930;13.334;2023-11-21T11:32:39;6.40;99.90
27633;DHT22;15046;50.930;13.334;2023-11-21T11:35:41;6.40;99.90
27633;DHT22;15046;50.930;13.334;2023-11-21T11:38:09;6.30;99.90
27633;DHT22;15046;50.930;13.334;2023-11-21T11:40:45;6.30;99.90
27633;DHT22;15046;50.930;13.334;2023-11-21T11:43:12;6.20;99.90
27633;DHT22;15046;50.930;13.334;2023-11-21T11:45:38;6.20;99.90
27633;DHT22;15046;50.930;13.334;2023-11-21T11:48:08;6.10;99.90
27633;DHT22;15046;50.930;13.334;2023-11-21T11:51:00;6.10;99.90
27633;DHT22;15046;50.930;13.334;2023-11-21T11:53:35;6.10;99.90
27633;DHT22;15046;50.930;13.334;2023-11-21T11:58:50;6.10;99.90
27633;DHT22;15046;50.930;13.334;2023-11-21T12:01:20;6.10;99.90
27633;DHT22;15046;50.930;13.334;2023-11-21T12:06:43;6.10;99.90
27633;DHT22;15046;50.930;13.334;2023-11-21T12:11:45;6.10;99.90
27633;DHT22;15046;50.930;13.334;2023-11-21T12:14:13;6.10;99.90
27633;DHT22;15046;50.930;13.334;2023-11-21T12:16:39;6.00;99.90
27633;DHT22;15046;50.930;13.334;2023-11-21T12:19:05;6.00;99.90
27633;DHT22;15046;50.930;13.334;2023-11-21T12:21:31;6.00;99.90
27633;DHT22;15046;50.930;13.334;2023-11-21T12:23:58;6.00;99.90
27633;DHT22;15046;50.930;13.334;2023-11-21T12:26:27;6.00;99.90
27633;DHT22;15046;50.930;13.334;2023-11-21T12:28:56;5.90;99.90
27633;DHT22;15046;50.930;13.334;2023-11-21T12:31:22;5.90;99.90
27633;DHT22;15046;50.930;13.334;2023-11-21T12:33:48;5.90;99.90
27633;DHT22;15046;50.930;13.334;2023-11-21T12:36:15;5.80;99.90
27633;DHT22;15046;50.930;13.334;2023-11-21T12:38:42;5.80;99.90
27633;DHT22;15046;50.930;13.334;2023-11-21T12:41:09;5.80;99.90
27633;DHT22;15046;50.930;13.334;2023-11-21T12:43:35;5.80;99.90
27633;DHT22;15046;50.930;13.334;2023-11-21T12:46:08;5.80;99.90
27633;DHT22;15046;50.930;13.334;2023-11-21T12:48:38;5.80;99.90
27633;DHT22;15046;50.930;13.334;2023-11-21T12:51:13;5.70;99.90
27633;DHT22;15046;50.930;13.334;2023-11-21T12:53:42;5.70;99.90
27633;DHT22;15046;50.930;13.334;2023-11-21T12:56:12;5.80;99.90
27633;DHT22;15046;50.930;13.334;2023-11-21T12:58:39;5.80;99.90
27633;DHT22;15046;50.930;13.334;2023-11-21T13:01:06;5.80;99.90
27633;DHT22;15046;50.930;13.334;2023-11-21T13:03:38;5.80;99.90
27633;DHT22;15046;50.930;13.334;2023-11-21T13:06:05;5.80;99.90
27633;DHT22;15046;50.930;13.334;2023-11-21T13:08:31;5.80;99.90
27633;DHT22;15046;50.930;13.334;2023-11-21T13:10:59;5.80;99.90
27633;DHT22;15046;50.930;13.334;2023-11-21T13:13:28;5.80;99.90
27633;DHT22;15046;50.930;13.334;2023-11-21T13:18:27;5.70;99.90
27633;DHT22;15046;50.930;13.334;2023-11-21T13:20:54;5.70;99.90
27633;DHT22;15046;50.930;13.334;2023-11-21T13:23:21;5.70;99.90
27633;DHT22;15046;50.930;13.334;2023-11-21T13:25:48;5.60;99.90
27633;DHT22;15046;50.930;13.334;2023-11-21T13:28:15;5.60;99.90
27633;DHT22;15046;50.930;13.334;2023-11-21T13:30:46;5.50;99.90
27633;DHT22;15046;50.930;13.334;2023-11-21T13:33:14;5.50;99.90
27633;DHT22;15046;50.930;13.334;2023-11-21T13:35:47;5.50;99.90
27633;DHT22;15046;50.930;13.334;2023-11-21T13:38:16;5.50;99.90
27633;DHT22;15046;50.930;13.334;2023-11-21T13:40:48;5.50;99.90
27633;DHT22;15046;50.930;13.334;2023-11-21T13:43:21;5.40;99.90
27633;DHT22;15046;50.930;13.334;2023-11-21T13:45:48;5.50;99.90
27633;DHT22;15046;50.930;13.334;2023-11-21T13:48:26;5.50;99.90
27633;DHT22;15046;50.930;13.334;2023-11-21T13:51:06;5.40;99.90
27633;DHT22;15046;50.930;13.334;2023-11-21T13:53:47;5.30;99.90
27633;DHT22;15046;50.930;13.334;2023-11-21T13:56:18;5.30;99.90
27633;DHT22;15046;50.930;13.334;2023-11-21T13:58:51;5.20;99.90
27633;DHT22;15046;50.930;13.334;2023-11-21T14:01:25;5.20;99.90
27633;DHT22;15046;50.930;13.334;2023-11-21T14:03:58;5.20;99.90
27633;DHT22;15046;50.930;13.334;2023-11-21T14:06:47;5.00;99.90
27633;DHT22;15046;50.930;13.334;2023-11-21T14:09:24;5.10;99.90
27633;DHT22;15046;50.930;13.334;2023-11-21T14:11:59;5.00;99.90
27633;DHT22;15046;50.930;13.334;2023-11-21T14:14:27;4.90;99.90
27633;DHT22;15046;50.930;13.334;2023-11-21T14:16:54;4.90;99.90
27633;DHT22;15046;50.930;13.334;2023-11-21T14:19:24;4.90;99.90
27633;DHT22;15046;50.930;13.334;2023-11-21T14:21:56;4.90;99.90
27633;DHT22;15046;50.930;13.334;2023-11-21T14:24:22;4.80;99.90
27633;DHT22;15046;50.930;13.334;2023-11-21T14:26:49;4.80;99.90
27633;DHT22;15046;50.930;13.334;2023-11-21T14:29:18;4.80;99.90
27633;DHT22;15046;50.930;13.334;2023-11-21T14:31:49;4.80;99.90
27633;DHT22;15046;50.930;13.334;2023-11-21T14:34:17;4.70;99.90
27633;DHT22;15046;50.930;13.334;2023-11-21T14:36:43;4.70;99.90
27633;DHT22;15046;50.930;13.334;2023-11-21T14:39:11;4.70;99.90
27633;DHT22;15046;50.930;13.334;2023-11-21T14:41:52;4.70;99.90
27633;DHT22;15046;50.930;13.334;2023-11-21T14:44:19;4.70;99.90
27633;DHT22;15046;50.930;13.334;2023-11-21T14:46:46;4.60;99.90
27633;DHT22;15046;50.930;13.334;2023-11-21T14:49:14;4.60;99.90
27633;DHT22;15046;50.930;13.334;2023-11-21T14:51:49;4.60;99.90
27633;DHT22;15046;50.930;13.334;2023-11-21T14:54:33;4.60;99.90
27633;DHT22;15046;50.930;13.334;2023-11-21T14:57:13;4.50;99.90
27633;DHT22;15046;50.930;13.334;2023-11-21T14:59:48;4.60;99.90
27633;DHT22;15046;50.930;13.334;2023-11-21T15:02:17;4.50;99.90
27633;DHT22;15046;50.930;13.334;2023-11-21T15:04:48;4.50;99.90
27633;DHT22;15046;50.930;13.334;2023-11-21T15:07:17;4.60;99.90
27633;DHT22;15046;50.930;13.334;2023-11-21T15:09:43;4.60;99.90
27633;DHT22;15046;50.930;13.334;2023-11-21T15:12:12;4.60;99.90
27633;DHT22;15046;50.930;13.334;2023-11-21T15:14:46;4.60;99.90
27633;DHT22;15046;50.930;13.334;2023-11-21T15:17:15;4.50;99.90
27633;DHT22;15046;50.930;13.334;2023-11-21T15:19:48;4.50;99.90
27633;DHT22;15046;50.930;13.334;2023-11-21T15:22:14;4.50;99.90
27633;DHT22;15046;50.930;13.334;2023-11-21T15:24:42;4.50;99.90
27633;DHT22;15046;50.930;13.334;2023-11-21T15:27:11;4.40;99.90
27633;DHT22;15046;50.930;13.334;2023-11-21T15:30:01;4.40;99.90
27633;DHT22;15046;50.930;13.334;2023-11-21T15:32:26;4.40;99.90
27633;DHT22;15046;50.930;13.334;2023-11-21T15:34:52;4.40;99.90
27633;DHT22;15046;50.930;13.334;2023-11-21T15:37:18;4.40;99.90
27633;DHT22;15046;50.930;13.334;2023-11-21T15:39:44;4.40;99.90
27633;DHT22;15046;50.930;13.334;2023-11-21T15:42:10;4.30;99.90
27633;DHT22;15046;50.930;13.334;2023-11-21T15:44:37;4.30;99.90
27633;DHT22;15046;50.930;13.334;2023-11-21T15:47:04;4.30;99.90
27633;DHT22;15046;50.930;13.334;2023-11-21T15:49:32;4.30;99.90
27633;DHT22;15046;50.930;13.334;2023-11-21T15:52:01;4.20;99.90